createdAt,value
2023-04-21T00:02:35.870Z,99.90
2023-04-21T00:05:21.927Z,99.90
2023-04-21T00:08:08.222Z,99.90
2023-04-21T00:10:53.551Z,99.90
2023-04-21T00:13:39.228Z,99.90
2023-04-21T00:16:24.552Z,99.90
2023-04-21T00:19:10.029Z,99.90
2023-04-21T00:21:58.932Z,99.90
2023-04-21T00:24:45.374Z,99.90
2023-04-21T00:27:30.814Z,99.90
2023-04-21T00:30:16.325Z,99.90
2023-04-21T00:33:01.705Z,99.90
2023-04-21T00:35:47.229Z,99.90
2023-04-21T00:38:32.594Z,99.90
2023-04-21T00:41:17.999Z,99.90
2023-04-21T00:44:04.308Z,99.90
2023-04-21T00:46:49.402Z,99.90
2023-04-21T00:49:35.120Z,99.90
2023-04-21T00:52:20.324Z,99.90
2023-04-21T00:55:06.817Z,99.90
2023-04-21T00:57:53.541Z,99.90
2023-04-21T01:00:39.660Z,99.90
2023-04-21T01:03:25.215Z,99.90
2023-04-21T01:06:10.944Z,99.90
2023-04-21T01:08:56.252Z,99.90
2023-04-21T01:11:41.698Z,99.90
2023-04-21T01:14:27.055Z,99.90
2023-04-21T01:17:12.502Z,99.90
2023-04-21T01:20:01.739Z,99.90
2023-04-21T01:22:46.970Z,99.90
2023-04-21T01:25:32.786Z,99.90
2023-04-21T01:28:25.305Z,99.90
2023-04-21T01:31:10.475Z,99.90
2023-04-21T01:33:55.829Z,99.90
2023-04-21T01:36:41.396Z,99.90
2023-04-21T01:39:26.770Z,99.90
2023-04-21T01:42:13.019Z,99.90
2023-04-21T01:44:59.596Z,99.90
2023-04-21T01:47:44.988Z,99.90
2023-04-21T01:50:30.267Z,99.90
2023-04-21T01:53:15.734Z,99.90
2023-04-21T01:56:01.029Z,99.90
2023-04-21T01:58:46.474Z,99.90
2023-04-21T02:01:31.872Z,99.90
2023-04-21T02:04:17.429Z,99.90
2023-04-21T02:07:02.762Z,99.90
2023-04-21T02:09:48.325Z,99.90
2023-04-21T02:12:33.699Z,99.90
2023-04-21T02:15:19.076Z,99.90
2023-04-21T02:18:04.544Z,99.90
2023-04-21T02:20:49.882Z,99.90
2023-04-21T02:23:35.407Z,99.90
2023-04-21T02:26:21.223Z,99.90
2023-04-21T02:29:06.489Z,99.90
2023-04-21T02:32:03.084Z,99.90
2023-04-21T02:34:51.059Z,99.90
2023-04-21T02:37:36.454Z,99.90
2023-04-21T02:40:21.717Z,99.90
2023-04-21T02:43:07.754Z,99.90
2023-04-21T02:45:52.876Z,99.90
2023-04-21T02:48:38.258Z,99.90
2023-04-21T02:51:23.697Z,99.90
2023-04-21T02:54:08.928Z,99.90
2023-04-21T02:56:54.141Z,99.90
2023-04-21T02:59:39.489Z,99.90
2023-04-21T03:02:25.007Z,99.90
2023-04-21T03:05:10.467Z,99.90
2023-04-21T03:07:55.813Z,99.90
2023-04-21T03:10:41.194Z,99.90
2023-04-21T03:13:26.586Z,99.90
2023-04-21T03:16:13.259Z,99.90
2023-04-21T03:18:58.314Z,99.90
2023-04-21T03:21:43.713Z,99.90
2023-04-21T03:24:29.969Z,99.90
2023-04-21T03:27:15.132Z,99.90
2023-04-21T03:30:00.620Z,99.90
2023-04-21T03:32:45.865Z,99.90
2023-04-21T03:35:31.247Z,99.90
2023-04-21T03:38:16.775Z,99.90
2023-04-21T03:41:04.046Z,99.90
2023-04-21T03:43:52.126Z,99.90
2023-04-21T03:46:37.187Z,99.90
2023-04-21T03:49:22.617Z,99.90
2023-04-21T03:52:07.868Z,99.90
2023-04-21T03:54:53.189Z,99.90
2023-04-21T03:57:40.965Z,99.90
2023-04-21T04:00:26.164Z,99.90
2023-04-21T04:03:11.668Z,99.90
2023-04-21T04:05:56.793Z,99.90
2023-04-21T04:08:42.292Z,99.90
2023-04-21T04:11:27.716Z,99.90
2023-04-21T04:14:13.410Z,99.90
2023-04-21T04:16:59.297Z,99.90
2023-04-21T04:19:45.018Z,99.90
2023-04-21T04:22:30.631Z,99.90
2023-04-21T04:25:17.039Z,99.90
2023-04-21T04:28:02.846Z,99.90
2023-04-21T04:30:48.765Z,99.90
2023-04-21T04:33:34.141Z,99.90
2023-04-21T04:36:19.888Z,99.90
2023-04-21T04:39:05.933Z,99.90
2023-04-21T04:41:52.686Z,99.90
2023-04-21T04:44:38.295Z,99.90
2023-04-21T04:47:23.493Z,99.90
2023-04-21T04:50:09.353Z,99.90
2023-04-21T04:52:54.516Z,99.90
2023-04-21T04:55:39.992Z,99.90
2023-04-21T04:58:25.962Z,99.90
2023-04-21T05:01:15.980Z,99.90
2023-04-21T05:04:01.541Z,99.90
2023-04-21T05:06:47.309Z,99.90
2023-04-21T05:09:32.583Z,99.90
2023-04-21T05:12:18.153Z,99.90
2023-04-21T05:15:04.449Z,99.90
2023-04-21T05:17:49.714Z,99.90
2023-04-21T05:20:35.138Z,99.90
2023-04-21T05:23:20.899Z,99.90
2023-04-21T05:26:06.427Z,99.90
2023-04-21T05:28:51.965Z,99.90
2023-04-21T05:31:38.997Z,99.90
2023-04-21T05:34:24.125Z,99.90
2023-04-21T05:37:12.353Z,99.90
2023-04-21T05:39:57.713Z,99.90
2023-04-21T05:42:43.343Z,99.90
2023-04-21T05:45:28.667Z,99.90
2023-04-21T05:48:14.131Z,99.90
2023-04-21T05:51:11.846Z,99.90
2023-04-21T05:53:56.890Z,99.90
2023-04-21T05:56:42.182Z,99.90
2023-04-21T05:59:27.792Z,99.90
2023-04-21T06:02:13.029Z,99.90
2023-04-21T06:04:58.437Z,99.90
2023-04-21T06:07:44.494Z,99.90
2023-04-21T06:10:30.880Z,99.90
2023-04-21T06:13:16.320Z,99.90
2023-04-21T06:16:01.818Z,99.90
2023-04-21T06:18:47.121Z,99.90
2023-04-21T06:21:32.712Z,99.90
2023-04-21T06:24:24.972Z,99.90
2023-04-21T06:27:13.651Z,99.90
2023-04-21T06:29:59.236Z,99.90
2023-04-21T06:32:48.634Z,99.90
2023-04-21T06:35:34.272Z,99.90
2023-04-21T06:38:20.221Z,99.90
2023-04-21T06:41:06.556Z,99.90
2023-04-21T06:43:51.661Z,99.90
2023-04-21T06:46:37.306Z,99.90
2023-04-21T06:49:22.497Z,99.90
2023-04-21T06:52:08.118Z,99.90
2023-04-21T06:54:53.064Z,99.90
2023-04-21T06:57:38.590Z,99.90
2023-04-21T07:00:24.004Z,99.90
2023-04-21T07:03:09.432Z,99.90
2023-04-21T07:05:54.801Z,99.90
2023-04-21T07:08:41.422Z,99.90
2023-04-21T07:11:28.533Z,99.90
2023-04-21T07:14:14.016Z,99.90
2023-04-21T07:16:59.527Z,99.90
2023-04-21T07:19:44.937Z,99.90
2023-04-21T07:22:30.650Z,99.80
2023-04-21T07:25:15.889Z,99.70
2023-04-21T07:28:02.791Z,99.00
2023-04-21T07:30:48.036Z,99.20
2023-04-21T07:33:33.494Z,99.10
2023-04-21T07:36:19.012Z,99.70
2023-04-21T07:39:04.354Z,99.40
2023-04-21T07:41:49.787Z,99.30
2023-04-21T07:44:35.499Z,99.30
2023-04-21T07:47:20.556Z,98.70
2023-04-21T07:50:06.954Z,98.50
2023-04-21T07:52:52.415Z,98.10
2023-04-21T07:55:37.992Z,98.00
2023-04-21T07:58:23.346Z,97.90
2023-04-21T08:01:09.028Z,97.70
2023-04-21T08:03:54.387Z,98.00
2023-04-21T08:06:39.622Z,97.40
2023-04-21T08:09:25.018Z,97.50
2023-04-21T08:12:10.375Z,97.10
2023-04-21T08:14:55.789Z,97.30
2023-04-21T08:17:41.327Z,95.90
2023-04-21T08:20:26.878Z,96.60
2023-04-21T08:23:12.500Z,96.40
2023-04-21T08:25:57.937Z,95.80
2023-04-21T08:28:43.601Z,96.50
2023-04-21T08:31:29.725Z,96.00
2023-04-21T08:34:15.615Z,95.30
2023-04-21T08:37:01.086Z,94.60
2023-04-21T08:39:47.800Z,94.20
2023-04-21T08:42:34.867Z,94.20
2023-04-21T08:45:21.324Z,94.50
2023-04-21T08:48:07.940Z,94.10
2023-04-21T08:50:54.036Z,94.50
2023-04-21T08:53:41.797Z,94.50
2023-04-21T08:56:27.917Z,94.10
2023-04-21T08:59:13.390Z,94.00
2023-04-21T09:02:15.264Z,93.80
2023-04-21T09:05:00.947Z,93.20
2023-04-21T09:07:46.340Z,93.00
2023-04-21T09:10:31.909Z,92.90
2023-04-21T09:13:18.295Z,92.80
2023-04-21T09:16:08.494Z,92.90
2023-04-21T09:18:54.106Z,92.60
2023-04-21T09:21:44.377Z,92.60
2023-04-21T09:24:30.301Z,92.40
2023-04-21T09:27:17.233Z,91.30
2023-04-21T09:30:04.607Z,91.70
2023-04-21T09:32:50.107Z,90.80
2023-04-21T09:35:37.416Z,91.00
2023-04-21T09:38:22.847Z,89.90
2023-04-21T09:41:08.499Z,90.40
2023-04-21T09:43:53.990Z,90.00
2023-04-21T09:46:43.547Z,89.90
2023-04-21T09:49:31.061Z,88.90
2023-04-21T09:52:19.805Z,88.90
2023-04-21T09:55:11.467Z,88.10
2023-04-21T09:57:59.963Z,88.40
2023-04-21T10:00:46.222Z,88.60
2023-04-21T10:03:31.978Z,88.00
2023-04-21T10:06:17.876Z,86.80
2023-04-21T10:09:05.453Z,87.10
2023-04-21T10:11:51.929Z,86.80
2023-04-21T10:14:37.209Z,86.90
2023-04-21T10:17:25.010Z,86.90
2023-04-21T10:20:15.633Z,85.90
2023-04-21T10:23:00.764Z,84.50
2023-04-21T10:25:49.222Z,84.00
2023-04-21T10:28:46.756Z,83.90
2023-04-21T10:31:52.159Z,83.60
2023-04-21T10:34:38.718Z,85.20
2023-04-21T10:37:23.791Z,83.80
2023-04-21T10:40:44.280Z,83.50
2023-04-21T10:43:48.468Z,82.80
2023-04-21T10:46:39.729Z,82.50
2023-04-21T10:49:30.475Z,82.10
2023-04-21T10:52:16.388Z,83.10
2023-04-21T10:55:02.107Z,82.70
2023-04-21T10:57:48.395Z,81.90
2023-04-21T11:00:34.128Z,82.80
2023-04-21T11:03:19.684Z,81.50
2023-04-21T11:06:15.293Z,80.60
2023-04-21T11:09:00.496Z,79.40
2023-04-21T11:11:45.696Z,80.70
2023-04-21T11:14:31.337Z,79.60
2023-04-21T11:17:23.093Z,79.80
2023-04-21T11:20:08.850Z,80.20
2023-04-21T11:22:56.756Z,80.20
2023-04-21T11:25:47.070Z,79.50
2023-04-21T11:28:32.990Z,79.70
2023-04-21T11:31:18.382Z,80.80
2023-04-21T11:34:05.266Z,79.70
2023-04-21T11:36:50.899Z,79.70
2023-04-21T11:39:39.795Z,79.00
2023-04-21T11:42:26.585Z,77.50
2023-04-21T11:45:22.098Z,78.90
2023-04-21T11:48:16.276Z,77.30
2023-04-21T11:51:01.528Z,77.20
2023-04-21T11:53:47.764Z,77.60
2023-04-21T11:56:38.058Z,77.40
2023-04-21T11:59:26.536Z,78.10
2023-04-21T12:02:20.951Z,77.10
2023-04-21T12:05:12.181Z,77.30
2023-04-21T12:07:57.770Z,76.70
2023-04-21T12:10:49.648Z,76.60
2023-04-21T12:13:36.074Z,76.60
2023-04-21T12:16:21.282Z,75.50
2023-04-21T12:19:06.794Z,75.40
2023-04-21T12:21:56.481Z,75.80
2023-04-21T12:24:43.090Z,74.10
2023-04-21T12:27:28.936Z,74.00
2023-04-21T12:30:14.328Z,74.50
2023-04-21T12:32:59.608Z,74.50
2023-04-21T12:35:44.966Z,74.20
2023-04-21T12:38:30.295Z,73.90
2023-04-21T12:41:15.768Z,75.00
2023-04-21T12:44:01.515Z,73.80
2023-04-21T12:46:48.882Z,73.50
2023-04-21T12:49:35.569Z,73.00
2023-04-21T12:52:20.699Z,74.20
2023-04-21T12:55:06.441Z,73.40
2023-04-21T12:57:52.789Z,74.10
2023-04-21T13:00:38.204Z,73.40
2023-04-21T13:03:23.556Z,73.70
2023-04-21T13:06:09.052Z,73.00
2023-04-21T13:08:54.743Z,73.10
2023-04-21T13:11:40.145Z,73.20
2023-04-21T13:14:25.813Z,74.00
2023-04-21T13:17:11.297Z,72.10
2023-04-21T13:19:56.646Z,73.20
2023-04-21T13:22:41.981Z,72.50
2023-04-21T13:25:27.370Z,71.80
2023-04-21T13:28:14.306Z,70.50
2023-04-21T13:30:59.905Z,72.20
2023-04-21T13:33:45.367Z,72.80
2023-04-21T13:36:31.281Z,71.10
2023-04-21T13:39:16.805Z,71.40
2023-04-21T13:42:02.475Z,71.20
2023-04-21T13:44:47.665Z,71.20
2023-04-21T13:47:33.856Z,72.20
2023-04-21T13:50:19.246Z,70.20
2023-04-21T13:53:04.655Z,69.70
2023-04-21T13:55:50.256Z,70.50
2023-04-21T13:58:35.834Z,71.70
2023-04-21T14:01:21.800Z,70.40
2023-04-21T14:04:07.557Z,70.90
2023-04-21T14:06:53.218Z,70.70
2023-04-21T14:09:38.393Z,69.00
2023-04-21T14:12:26.032Z,69.70
2023-04-21T14:15:13.184Z,70.60
2023-04-21T14:17:58.593Z,71.00
2023-04-21T14:20:45.796Z,71.50
2023-04-21T14:23:31.006Z,71.70
2023-04-21T14:26:16.398Z,71.20
2023-04-21T14:29:02.402Z,71.50
2023-04-21T14:31:47.714Z,71.00
2023-04-21T14:34:33.041Z,71.60
2023-04-21T14:37:18.357Z,71.30
2023-04-21T14:40:04.111Z,72.40
2023-04-21T14:42:49.307Z,71.90
2023-04-21T14:45:34.753Z,71.40
2023-04-21T14:48:21.292Z,71.60
2023-04-21T14:51:09.267Z,71.40
2023-04-21T14:53:54.291Z,70.70
2023-04-21T14:56:39.782Z,71.30
2023-04-21T14:59:25.582Z,68.60
2023-04-21T15:02:11.820Z,69.30
2023-04-21T15:04:57.312Z,69.00
2023-04-21T15:07:42.956Z,70.50
2023-04-21T15:10:30.778Z,69.20
2023-04-21T15:13:16.283Z,69.80
2023-04-21T15:16:01.581Z,69.80
2023-04-21T15:18:47.087Z,70.30
2023-04-21T15:21:32.430Z,69.80
2023-04-21T15:24:17.842Z,68.60
2023-04-21T15:27:02.908Z,68.80
2023-04-21T15:29:48.146Z,68.50
2023-04-21T15:32:33.708Z,68.80
2023-04-21T15:35:19.227Z,68.80
2023-04-21T15:38:05.986Z,69.80
2023-04-21T15:41:00.607Z,68.90
2023-04-21T15:43:47.462Z,69.20
2023-04-21T15:46:34.311Z,69.30
2023-04-21T15:49:19.694Z,68.40
2023-04-21T15:52:06.619Z,69.70
2023-04-21T15:54:52.079Z,69.30
2023-04-21T15:57:37.623Z,69.40
2023-04-21T16:00:22.804Z,69.50
2023-04-21T16:03:09.259Z,68.80
2023-04-21T16:05:55.092Z,69.50
2023-04-21T16:08:40.951Z,69.60
2023-04-21T16:11:27.965Z,68.90
2023-04-21T16:14:16.463Z,68.90
2023-04-21T16:17:02.277Z,68.80
2023-04-21T16:19:47.885Z,69.80
2023-04-21T16:22:33.700Z,70.60
2023-04-21T16:25:19.974Z,69.60
2023-04-21T16:28:06.511Z,67.90
2023-04-21T16:30:52.305Z,68.50
2023-04-21T16:33:38.081Z,69.00
2023-04-21T16:36:23.111Z,68.40
2023-04-21T16:39:08.486Z,69.00
2023-04-21T16:41:53.989Z,68.70
2023-04-21T16:44:39.695Z,68.80
2023-04-21T16:47:26.890Z,69.80
2023-04-21T16:50:12.498Z,68.80
2023-04-21T16:52:57.805Z,68.90
2023-04-21T16:55:43.115Z,69.00
2023-04-21T16:58:28.637Z,69.70
2023-04-21T17:01:13.770Z,69.30
2023-04-21T17:03:59.343Z,69.40
2023-04-21T17:06:44.613Z,69.90
2023-04-21T17:09:29.911Z,68.50
2023-04-21T17:12:15.286Z,68.70
2023-04-21T17:15:00.662Z,68.90
2023-04-21T17:17:48.542Z,69.40
2023-04-21T17:20:34.973Z,69.80
2023-04-21T17:23:20.272Z,69.50
2023-04-21T17:26:06.469Z,70.00
2023-04-21T17:28:52.046Z,69.70
2023-04-21T17:31:37.925Z,70.30
2023-04-21T17:34:23.310Z,69.60
2023-04-21T17:37:09.619Z,70.00
2023-04-21T17:39:54.959Z,70.10
2023-04-21T17:42:40.506Z,69.90
2023-04-21T17:45:25.773Z,70.40
2023-04-21T17:48:11.106Z,70.30
2023-04-21T17:50:56.601Z,70.50
2023-04-21T17:53:42.384Z,71.00
2023-04-21T17:56:27.740Z,70.80
2023-04-21T17:59:13.361Z,71.40
2023-04-21T18:01:59.060Z,70.80
2023-04-21T18:04:45.002Z,71.90
2023-04-21T18:07:31.201Z,72.20
2023-04-21T18:10:16.346Z,73.20
2023-04-21T18:13:01.792Z,72.30
2023-04-21T18:15:47.212Z,72.30
2023-04-21T18:18:32.531Z,72.40
2023-04-21T18:21:18.217Z,73.60
2023-04-21T18:24:03.994Z,72.80
2023-04-21T18:26:51.140Z,72.20
2023-04-21T18:29:36.235Z,72.30
2023-04-21T18:32:21.602Z,73.20
2023-04-21T18:35:07.390Z,72.50
2023-04-21T18:37:52.697Z,72.90
2023-04-21T18:40:38.215Z,72.60
2023-04-21T18:43:23.842Z,72.30
2023-04-21T18:46:09.000Z,72.80
2023-04-21T18:48:54.402Z,72.90
2023-04-21T18:51:39.746Z,72.90
2023-04-21T18:54:25.065Z,73.10
2023-04-21T18:57:10.478Z,73.10
2023-04-21T18:59:55.786Z,74.10
2023-04-21T19:02:41.583Z,73.00
2023-04-21T19:05:29.646Z,73.10
2023-04-21T19:11:01.826Z,72.90
2023-04-21T19:13:48.118Z,73.10
2023-04-21T19:16:33.326Z,74.00
2023-04-21T19:19:19.926Z,73.30
2023-04-21T19:22:05.416Z,74.20
2023-04-21T19:24:51.386Z,73.90
2023-04-21T19:27:36.811Z,73.10
2023-04-21T19:30:22.042Z,73.60
2023-04-21T19:33:07.549Z,73.20
2023-04-21T19:35:52.874Z,73.00
2023-04-21T19:38:38.272Z,73.40
2023-04-21T19:41:24.408Z,73.80
2023-04-21T19:44:09.477Z,74.00
2023-04-21T19:46:54.861Z,73.50
2023-04-21T19:49:40.513Z,74.60
2023-04-21T19:52:25.913Z,74.30
2023-04-21T19:55:11.394Z,74.40
2023-04-21T19:57:57.780Z,74.30
2023-04-21T20:00:43.288Z,74.80
2023-04-21T20:03:29.019Z,74.60
2023-04-21T20:06:14.435Z,75.00
2023-04-21T20:08:59.748Z,74.60
2023-04-21T20:11:45.238Z,74.50
2023-04-21T20:14:30.854Z,74.40
2023-04-21T20:17:16.037Z,74.80
2023-04-21T20:20:01.861Z,75.60
2023-04-21T20:22:47.943Z,74.70
2023-04-21T20:25:33.188Z,74.90
2023-04-21T20:28:19.249Z,76.20
2023-04-21T20:31:04.595Z,75.10
2023-04-21T20:33:50.484Z,75.20
2023-04-21T20:36:36.995Z,75.40
2023-04-21T20:39:23.059Z,75.60
2023-04-21T20:42:13.201Z,75.90
2023-04-21T20:45:02.082Z,77.20
2023-04-21T20:47:47.207Z,76.30
2023-04-21T20:50:32.553Z,76.50
2023-04-21T20:53:18.034Z,76.50
2023-04-21T20:56:03.566Z,76.50
2023-04-21T20:58:49.354Z,77.40
2023-04-21T21:01:38.801Z,77.00
2023-04-21T21:04:24.546Z,77.10
2023-04-21T21:07:10.340Z,76.80
2023-04-21T21:09:56.591Z,77.00
2023-04-21T21:12:41.915Z,76.70
2023-04-21T21:15:28.168Z,76.90
2023-04-21T21:18:13.477Z,77.00
2023-04-21T21:20:58.885Z,78.00
2023-04-21T21:23:45.524Z,77.40
2023-04-21T21:26:30.805Z,77.10
2023-04-21T21:29:16.381Z,77.50
2023-04-21T21:32:01.710Z,77.10
2023-04-21T21:34:47.509Z,77.30
2023-04-21T21:37:32.740Z,77.40
2023-04-21T21:40:18.182Z,77.80
2023-04-21T21:43:03.570Z,77.60
2023-04-21T21:45:49.040Z,77.50
2023-04-21T21:48:34.537Z,77.60
2023-04-21T21:51:19.995Z,78.00
2023-04-21T21:54:06.524Z,77.70
2023-04-21T21:56:51.591Z,77.60
2023-04-21T21:59:37.149Z,78.10
2023-04-21T22:02:23.575Z,78.10
2023-04-21T22:05:10.042Z,77.60
2023-04-21T22:07:56.913Z,78.00
2023-04-21T22:10:42.876Z,78.20
2023-04-21T22:13:28.220Z,78.20
2023-04-21T22:16:13.352Z,78.10
2023-04-21T22:18:58.453Z,78.60
2023-04-21T22:21:43.870Z,78.30
2023-04-21T22:24:29.292Z,78.40
2023-04-21T22:27:14.582Z,79.00
2023-04-21T22:30:00.941Z,78.80
2023-04-21T22:32:46.080Z,78.40
2023-04-21T22:35:31.279Z,78.30
2023-04-21T22:38:16.610Z,78.10
2023-04-21T22:41:02.027Z,78.30
2023-04-21T22:43:48.059Z,78.40
2023-04-21T22:46:33.746Z,78.10
2023-04-21T22:49:19.565Z,78.20
2023-04-21T22:52:04.912Z,78.30
2023-04-21T22:54:50.253Z,78.10
2023-04-21T22:57:37.671Z,78.10
2023-04-21T23:00:23.300Z,78.10
2023-04-21T23:03:08.988Z,78.10
2023-04-21T23:05:54.335Z,78.00
2023-04-21T23:08:39.592Z,78.60
2023-04-21T23:11:24.897Z,79.30
2023-04-21T23:14:10.217Z,78.60
2023-04-21T23:16:55.551Z,78.60
2023-04-21T23:19:41.278Z,78.70
2023-04-21T23:22:27.101Z,79.10
2023-04-21T23:25:12.325Z,79.00
2023-04-21T23:27:57.505Z,79.10
2023-04-21T23:30:42.964Z,79.10
2023-04-21T23:33:28.605Z,79.20
2023-04-21T23:36:13.887Z,79.10
2023-04-21T23:38:59.063Z,79.50
2023-04-21T23:41:44.464Z,79.80
2023-04-21T23:44:30.202Z,79.40
2023-04-21T23:47:15.255Z,79.40
2023-04-21T23:50:00.602Z,79.40
2023-04-21T23:52:46.086Z,79.90
2023-04-21T23:55:31.473Z,79.80
2023-04-21T23:58:16.823Z,80.10
